Time;durP1;ratioP1;P1;durP2;ratioP2;P2;SDS_P1;SDS_P2;PMS_P1;PMS_P2;Temp;Humidity;BMP_temperature;BMP_pressure;BME280_temperature;BME280_humidity;BME280_pressure;Samples;Min_cycle;Max_cycle;Signal;HPM_P1;HPM_P2
2023/08/18 00:02:15;;;;;;;5.45;1.55;;;;;;;-144.73;100.00;54510.31;5007431;28;20053;-75
2023/08/18 00:04:42;;;;;;;7.88;1.38;;;;;;;-144.73;100.00;54506.22;5008170;28;20049;-76
2023/08/18 00:07:08;;;;;;;5.30;1.40;;;;;;;-144.73;100.00;54518.53;5004407;28;20392;-77
2023/08/18 00:09:34;;;;;;;4.85;1.50;;;;;;;-144.73;100.00;54483.66;4994636;28;20114;-77
2023/08/18 00:11:59;;;;;;;2.60;1.45;;;;;;;-144.73;100.00;54530.84;5009346;28;20116;-77
2023/08/18 00:14:24;;;;;;;5.13;1.40;;;;;;;-144.73;100.00;54510.31;4996785;28;20035;-76
2023/08/18 00:16:50;;;;;;;6.00;1.65;;;;;;;-144.73;100.00;54547.28;4993375;28;20057;-76
2023/08/18 00:19:15;;;;;;;5.13;2.17;;;;;;;-144.73;100.00;54481.59;5004011;28;20029;-76
2023/08/18 00:21:41;;;;;;;7.60;1.67;;;;;;;-144.73;100.00;54514.44;5004142;28;20030;-76
2023/08/18 00:24:06;;;;;;;6.22;1.70;;;;;;;-144.73;100.00;54493.91;5001561;28;20018;-76
2023/08/18 00:26:32;;;;;;;2.28;1.40;;;;;;;-144.73;100.00;54514.44;5000448;28;20041;-76
2023/08/18 00:28:57;;;;;;;6.15;1.83;;;;;;;-144.73;100.00;54514.44;4999009;28;20028;-77
2023/08/18 00:31:24;;;;;;;8.85;1.30;;;;;;;-144.73;100.00;54510.31;5003603;28;20026;-76
2023/08/18 00:33:49;;;;;;;3.80;1.40;;;;;;;-144.73;100.00;54518.53;5001694;28;20014;-76
2023/08/18 00:36:15;;;;;;;3.00;1.60;;;;;;;-144.73;100.00;54539.06;5003667;28;20034;-76
2023/08/18 00:38:40;;;;;;;6.28;1.85;;;;;;;-144.73;100.00;54543.16;5003642;28;20018;-76
2023/08/18 00:41:05;;;;;;;7.53;2.03;;;;;;;-144.73;100.00;54502.13;5001799;28;20027;-76
2023/08/18 00:43:30;;;;;;;7.80;1.52;;;;;;;-144.73;100.00;54518.53;4992915;28;20026;-76
2023/08/18 00:45:56;;;;;;;5.03;1.73;;;;;;;-144.73;100.00;54541.13;5003181;28;20053;-76
2023/08/18 00:48:23;;;;;;;4.75;1.52;;;;;;;-144.73;100.00;54518.53;4997259;28;20038;-76
2023/08/18 00:50:49;;;;;;;5.60;1.63;;;;;;;-144.73;100.00;54545.22;5005056;28;20030;-76
2023/08/18 00:53:15;;;;;;;4.82;1.75;;;;;;;-144.73;100.00;54555.47;5007389;28;20030;-77
2023/08/18 00:55:40;;;;;;;10.68;1.80;;;;;;;-144.73;100.00;54522.63;4993041;28;20053;-76
2023/08/18 00:58:06;;;;;;;9.73;1.70;;;;;;;-144.73;100.00;54551.38;4993259;28;20022;-76
2023/08/18 01:00:31;;;;;;;4.75;1.60;;;;;;;-144.73;100.00;54526.75;4990365;28;20035;-76
2023/08/18 01:02:58;;;;;;;7.18;1.80;;;;;;;-144.73;100.00;54530.84;4996081;28;20030;-76
2023/08/18 01:05:24;;;;;;;6.15;1.60;;;;;;;-144.73;100.00;54539.06;4990771;28;20039;-76
2023/08/18 01:07:49;;;;;;;6.75;1.80;;;;;;;-144.73;100.00;54493.91;4991529;28;20018;-76
2023/08/18 01:10:15;;;;;;;7.85;2.13;;;;;;;-144.73;100.00;54576.00;4988993;28;20052;-76
2023/08/18 01:12:59;;;;;;;4.68;1.75;;;;;;;-144.73;100.00;54508.28;5001349;28;20449;-76
2023/08/18 01:15:32;;;;;;;8.23;2.00;;;;;;;-144.73;100.00;54604.75;4993388;28;20034;-76
2023/08/18 01:18:03;;;;;;;7.50;1.95;;;;;;;-144.73;100.00;54539.06;4992411;28;20023;-76
2023/08/18 01:20:30;;;;;;;4.55;1.67;;;;;;;-144.73;100.00;54530.84;4996605;28;20549;-76
2023/08/18 01:22:57;;;;;;;8.50;2.38;;;;;;;-144.73;100.00;54559.59;5000835;28;20540;-76
2023/08/18 01:25:23;;;;;;;7.70;2.10;;;;;;;-144.73;100.00;54491.84;4992162;28;20035;-76
2023/08/18 01:27:50;;;;;;;8.82;2.22;;;;;;;-144.73;100.00;54522.63;4998866;28;20086;-76
2023/08/18 01:30:16;;;;;;;6.50;1.95;;;;;;;-144.73;100.00;54551.38;5002098;28;20052;-76
2023/08/18 01:33:43;;;;;;;7.60;1.85;;;;;;;-144.73;100.00;54604.75;5000429;28;20145;-76
2023/08/18 01:36:14;;;;;;;6.60;2.00;;;;;;;-144.73;100.00;54539.06;4932507;28;20037;-76
2023/08/18 01:38:42;;;;;;;6.07;2.35;;;;;;;-144.73;100.00;54522.63;4993736;28;20053;-76
2023/08/18 01:41:11;;;;;;;7.30;1.70;;;;;;;-144.73;100.00;54518.53;5000839;28;20030;-75
2023/08/18 01:43:37;;;;;;;10.93;2.38;;;;;;;-144.73;100.00;54518.53;5009061;28;20076;-76
2023/08/18 01:46:02;;;;;;;11.80;1.98;;;;;;;-144.73;100.00;54522.63;4991956;28;20061;-75
2023/08/18 01:48:27;;;;;;;5.32;1.67;;;;;;;-144.73;100.00;54530.84;5004596;28;20350;-75
2023/08/18 01:50:53;;;;;;;8.85;2.20;;;;;;;-144.73;100.00;54539.06;4990538;28;20026;-75
2023/08/18 01:53:19;;;;;;;11.32;2.50;;;;;;;-144.73;100.00;54510.31;4992958;28;20014;-76
2023/08/18 01:55:44;;;;;;;12.60;2.30;;;;;;;-144.73;100.00;54530.84;4989858;28;20528;-75
2023/08/18 01:58:09;;;;;;;7.43;2.10;;;;;;;-144.73;100.00;54567.81;4991924;28;20082;-75
2023/08/18 02:00:35;;;;;;;10.00;2.28;;;;;;;-144.73;100.00;54547.28;4996412;28;20092;-75
2023/08/18 02:03:00;;;;;;;15.50;2.60;;;;;;;-144.73;100.00;54522.63;4994511;28;20164;-75
2023/08/18 02:05:26;;;;;;;8.32;2.60;;;;;;;-144.73;100.00;54526.75;4999642;28;20057;-75
2023/08/18 02:07:51;;;;;;;5.80;2.20;;;;;;;-144.73;100.00;54567.81;4998116;28;20100;-75
2023/08/18 02:10:16;;;;;;;12.77;2.47;;;;;;;-144.73;100.00;54539.06;4995181;28;20034;-74
2023/08/18 02:12:43;;;;;;;15.23;3.20;;;;;;;-144.73;100.00;54514.44;5004319;28;20022;-74
2023/08/18 02:15:08;;;;;;;10.57;2.20;;;;;;;-144.73;100.00;54549.31;4998811;28;20034;-75
2023/08/18 02:17:34;;;;;;;10.82;2.22;;;;;;;-144.73;100.00;54576.00;5005914;28;20049;-74
2023/08/18 02:19:59;;;;;;;10.05;2.83;;;;;;;-144.73;100.00;54506.22;4988948;28;20042;-74
2023/08/18 02:22:25;;;;;;;7.78;2.60;;;;;;;-144.73;100.00;54567.81;5007568;28;20022;-74
2023/08/18 02:24:51;;;;;;;11.93;2.58;;;;;;;-144.73;100.00;54563.69;4987840;28;20034;-74
2023/08/18 02:27:17;;;;;;;11.30;2.45;;;;;;;-144.73;100.00;54543.16;4988894;28;20018;-75
2023/08/18 02:29:42;;;;;;;10.50;3.10;;;;;;;-144.73;100.00;54493.91;4986474;28;20104;-74
2023/08/18 02:32:07;;;;;;;16.45;2.88;;;;;;;-144.73;100.00;54493.91;5001618;28;20025;-74
2023/08/18 02:34:33;;;;;;;4.55;2.00;;;;;;;-144.73;100.00;54526.75;4995523;28;20406;-74
2023/08/18 02:36:58;;;;;;;8.48;2.25;;;;;;;-144.73;100.00;54539.06;4998828;28;20034;-74
2023/08/18 02:39:24;;;;;;;9.43;2.50;;;;;;;-144.73;100.00;54547.28;4998458;28;20532;-74
2023/08/18 02:41:51;;;;;;;15.70;3.60;;;;;;;-144.73;100.00;54526.75;4990137;28;20034;-74
2023/08/18 02:44:17;;;;;;;13.63;2.65;;;;;;;-144.73;100.00;54510.31;4989432;28;20117;-75
2023/08/18 02:46:42;;;;;;;8.48;2.58;;;;;;;-144.73;100.00;54518.53;4986655;28;20054;-75
2023/08/18 02:49:08;;;;;;;9.88;2.65;;;;;;;-144.73;100.00;54518.53;4990009;28;20050;-75
2023/08/18 02:51:33;;;;;;;26.92;3.25;;;;;;;-144.73;100.00;54571.91;4998004;28;20077;-77
2023/08/18 02:53:59;;;;;;;15.70;3.50;;;;;;;-144.73;100.00;54524.69;4991767;28;20023;-75
2023/08/18 02:56:25;;;;;;;9.45;2.72;;;;;;;-144.73;100.00;54571.91;4996690;28;20027;-75
2023/08/18 02:58:51;;;;;;;9.73;3.38;;;;;;;-144.73;100.00;54543.16;4992320;28;20026;-74
2023/08/18 03:01:16;;;;;;;20.70;3.90;;;;;;;-144.73;100.00;54514.44;4988956;28;20026;-74
2023/08/18 03:03:41;;;;;;;10.20;3.08;;;;;;;-144.73;100.00;54518.53;4990226;28;20058;-74
2023/08/18 03:06:08;;;;;;;14.85;3.05;;;;;;;-144.73;100.00;54539.06;4988495;28;20041;-75
2023/08/18 03:08:35;;;;;;;9.95;2.90;;;;;;;-144.73;100.00;54512.38;5004466;28;20014;-75
2023/08/18 03:11:01;;;;;;;15.63;3.45;;;;;;;-144.73;100.00;54547.28;4987238;28;20402;-74
2023/08/18 03:13:27;;;;;;;10.00;3.65;;;;;;;-144.73;100.00;54543.16;4984519;28;20038;-75
2023/08/18 03:15:52;;;;;;;14.98;3.67;;;;;;;-144.73;100.00;54506.22;4987475;28;20045;-74
2023/08/18 03:18:18;;;;;;;8.43;3.20;;;;;;;-144.73;100.00;54518.53;4985721;28;20023;-75
2023/08/18 03:20:46;;;;;;;17.92;3.55;;;;;;;-144.73;100.00;54541.13;4996185;28;20068;-74
2023/08/18 03:23:15;;;;;;;8.13;3.47;;;;;;;-144.73;100.00;54559.59;4994439;28;20370;-75
2023/08/18 03:25:42;;;;;;;10.48;2.90;;;;;;;-144.73;100.00;54530.84;4999734;28;20039;-75
2023/08/18 03:28:07;;;;;;;11.18;3.38;;;;;;;-144.73;100.00;54569.84;5002495;28;20022;-75
2023/08/18 03:30:40;;;;;;;11.80;3.55;;;;;;;-144.73;100.00;54539.06;4998338;28;20069;-74
2023/08/18 03:33:06;;;;;;;15.90;3.80;;;;;;;-144.73;100.00;54520.59;5001425;28;20018;-74
2023/08/18 03:35:32;;;;;;;14.23;3.90;;;;;;;-144.73;100.00;54559.59;4993348;28;20077;-74
2023/08/18 03:38:03;;;;;;;19.10;4.45;;;;;;;-144.73;100.00;54543.16;5008893;28;20022;-75
2023/08/18 03:40:28;;;;;;;16.20;3.78;;;;;;;-144.73;100.00;54563.69;4992871;28;20034;-74
2023/08/18 03:42:54;;;;;;;15.80;4.68;;;;;;;-144.73;100.00;54563.69;4992388;28;20041;-74
2023/08/18 03:45:19;;;;;;;16.17;4.35;;;;;;;-144.73;100.00;54514.44;4981803;28;20126;-75
2023/08/18 03:47:45;;;;;;;14.60;4.68;;;;;;;-144.73;100.00;54530.84;4991098;28;20023;-74
2023/08/18 03:50:10;;;;;;;15.32;4.95;;;;;;;-144.73;100.00;54506.22;4994116;28;20038;-74
2023/08/18 03:52:36;;;;;;;17.35;4.38;;;;;;;-144.73;100.00;54518.53;4993974;28;20045;-74
2023/08/18 03:55:01;;;;;;;17.65;4.85;;;;;;;-144.73;100.00;54502.13;5008815;28;20026;-74
2023/08/18 03:57:27;;;;;;;22.23;5.57;;;;;;;-144.73;100.00;54539.06;4994673;28;20513;-75
2023/08/18 03:59:55;;;;;;;20.00;5.38;;;;;;;-144.73;100.00;54543.16;4994146;28;20100;-75
2023/08/18 04:02:21;;;;;;;20.40;5.35;;;;;;;-144.73;100.00;54551.38;5004577;28;20025;-75
2023/08/18 04:04:47;;;;;;;19.20;5.05;;;;;;;-144.73;100.00;54539.06;4993745;28;20046;-75
2023/08/18 04:07:13;;;;;;;17.13;4.82;;;;;;;-144.73;100.00;54573.97;5005772;28;20385;-75
2023/08/18 04:09:38;;;;;;;12.55;4.38;;;;;;;-144.73;100.00;54582.16;5000288;28;20084;-75
2023/08/18 04:12:04;;;;;;;17.52;6.15;;;;;;;-144.73;100.00;54571.91;5009295;28;20040;-75
2023/08/18 04:14:29;;;;;;;11.25;4.93;;;;;;;-144.73;100.00;54539.06;5017104;28;20093;-75
2023/08/18 04:16:55;;;;;;;11.10;4.53;;;;;;;-144.73;100.00;54522.63;4995627;28;20042;-75
2023/08/18 04:19:20;;;;;;;10.00;4.15;;;;;;;-144.73;100.00;54504.16;5006857;28;20042;-74
2023/08/18 04:21:45;;;;;;;11.57;4.80;;;;;;;-144.73;100.00;54518.53;5004972;28;20026;-74
2023/08/18 04:24:13;;;;;;;21.17;6.07;;;;;;;-144.73;100.00;54543.16;4997588;28;20029;-74
2023/08/18 04:26:39;;;;;;;16.17;5.47;;;;;;;-144.73;100.00;54530.84;5006679;28;20093;-74
2023/08/18 04:29:04;;;;;;;12.60;4.88;;;;;;;-144.73;100.00;54563.69;4995335;28;20038;-74
2023/08/18 04:31:30;;;;;;;18.77;5.55;;;;;;;-144.73;100.00;54571.91;4999109;28;20394;-74
2023/08/18 04:33:56;;;;;;;23.00;6.65;;;;;;;-144.73;100.00;54547.28;5001344;28;20101;-75
2023/08/18 04:36:21;;;;;;;23.98;7.05;;;;;;;-144.73;100.00;54604.75;5003607;28;20480;-74
2023/08/18 04:38:47;;;;;;;16.10;6.70;;;;;;;-144.73;100.00;54571.91;4993447;28;20023;-74
2023/08/18 04:41:12;;;;;;;17.77;7.13;;;;;;;-144.73;100.00;54547.28;4995303;28;20034;-74
2023/08/18 04:43:37;;;;;;;21.23;8.38;;;;;;;-144.73;100.00;54551.38;5009098;28;20044;-75
2023/08/18 04:46:03;;;;;;;14.75;8.02;;;;;;;-144.73;100.00;54563.69;5000764;28;20034;-75
2023/08/18 04:48:28;;;;;;;20.92;8.82;;;;;;;-144.73;100.00;54580.13;4999698;28;20026;-74
2023/08/18 04:50:54;;;;;;;18.83;9.00;;;;;;;-144.73;100.00;54547.28;4991635;28;20039;-75
2023/08/18 04:53:19;;;;;;;20.90;11.13;;;;;;;-144.73;100.00;54539.06;4993541;28;20026;-74
2023/08/18 04:55:45;;;;;;;24.13;10.68;;;;;;;-144.73;100.00;54506.22;4991843;28;20039;-74
2023/08/18 04:58:13;;;;;;;28.70;9.63;;;;;;;-144.73;100.00;54580.13;4981659;28;20022;-75
2023/08/18 05:00:40;;;;;;;25.83;10.13;;;;;;;-144.73;100.00;54526.75;4995873;28;20026;-74
2023/08/18 05:03:06;;;;;;;18.83;9.60;;;;;;;-144.73;100.00;54539.06;4994607;28;20030;-75
2023/08/18 05:05:34;;;;;;;20.30;9.45;;;;;;;-144.73;100.00;54518.53;5009522;28;20038;-74
2023/08/18 05:07:59;;;;;;;26.25;10.77;;;;;;;-144.73;100.00;54576.00;5009500;28;20018;-74
2023/08/18 05:10:24;;;;;;;23.17;10.05;;;;;;;-144.73;100.00;54539.06;5009262;28;20124;-75
2023/08/18 05:12:50;;;;;;;23.33;9.15;;;;;;;-144.73;100.00;54576.00;4994674;28;20022;-74
2023/08/18 05:15:16;;;;;;;24.38;10.18;;;;;;;-144.73;100.00;54514.44;4992665;28;20069;-75
2023/08/18 05:17:42;;;;;;;19.40;9.75;;;;;;;-144.73;100.00;54565.75;4999189;28;20076;-75
2023/08/18 05:20:07;;;;;;;22.77;10.27;;;;;;;-144.73;100.00;54582.16;4992352;28;20125;-74
2023/08/18 05:22:33;;;;;;;23.90;9.32;;;;;;;-144.73;100.00;54514.44;5010265;28;20481;-74
2023/08/18 05:24:58;;;;;;;22.52;9.30;;;;;;;-144.73;100.00;54559.59;4991261;28;20034;-74
2023/08/18 05:27:23;;;;;;;24.25;11.52;;;;;;;-144.73;100.00;54547.28;4978961;28;20057;-74
2023/08/18 05:29:50;;;;;;;21.42;10.20;;;;;;;-144.73;100.00;54547.28;4990945;28;20042;-74
2023/08/18 05:32:15;;;;;;;18.73;10.10;;;;;;;-144.73;100.00;54555.47;4989567;28;20041;-75
2023/08/18 05:34:40;;;;;;;28.02;11.30;;;;;;;-144.73;100.00;54551.38;4995187;28;20042;-74
2023/08/18 05:37:06;;;;;;;25.48;10.90;;;;;;;-144.73;100.00;54539.06;5010107;28;20022;-74
2023/08/18 05:39:31;;;;;;;19.10;9.75;;;;;;;-144.73;100.00;54547.28;5003077;28;20044;-73
2023/08/18 05:41:57;;;;;;;20.23;10.82;;;;;;;-144.73;100.00;54539.06;4985214;28;20113;-74
2023/08/18 05:44:22;;;;;;;21.00;10.85;;;;;;;-144.73;100.00;54549.31;4981319;28;20042;-74
2023/08/18 05:46:47;;;;;;;21.98;11.02;;;;;;;-144.73;100.00;54539.06;4989469;28;20014;-75
2023/08/18 05:49:13;;;;;;;19.77;9.88;;;;;;;-144.73;100.00;54604.75;4977004;28;20037;-75
2023/08/18 05:51:42;;;;;;;19.95;10.05;;;;;;;-144.73;100.00;54545.22;4998811;28;20025;-74
2023/08/18 05:54:09;;;;;;;16.50;10.55;;;;;;;-144.73;100.00;54567.81;4999900;28;20038;-75
2023/08/18 05:56:34;;;;;;;21.83;11.02;;;;;;;-144.73;100.00;54567.81;4997590;28;20028;-74
2023/08/18 05:58:59;;;;;;;20.48;11.18;;;;;;;-144.73;100.00;54543.16;5002241;28;20116;-74
2023/08/18 06:01:25;;;;;;;25.35;11.57;;;;;;;-144.73;100.00;54506.22;5010503;28;20113;-75
2023/08/18 06:03:50;;;;;;;19.55;10.75;;;;;;;-144.73;100.00;54547.28;5001642;28;20033;-75
2023/08/18 06:06:16;;;;;;;17.65;10.02;;;;;;;-144.73;100.00;54518.53;5004182;28;20034;-75
2023/08/18 06:08:41;;;;;;;16.90;9.52;;;;;;;-144.73;100.00;54530.84;5000890;28;20045;-75
2023/08/18 06:11:07;;;;;;;26.02;10.70;;;;;;;-144.73;100.00;54551.38;4998575;28;20056;-74
2023/08/18 06:13:32;;;;;;;23.20;10.65;;;;;;;-144.73;100.00;54547.28;5011142;28;20167;-74
2023/08/18 06:16:02;;;;;;;21.90;11.65;;;;;;;-144.73;100.00;54539.06;4994057;28;20066;-74
2023/08/18 06:18:28;;;;;;;22.48;10.52;;;;;;;-144.73;100.00;54559.59;5001142;28;20057;-74
2023/08/18 06:20:53;;;;;;;26.02;10.63;;;;;;;-144.73;100.00;54510.31;4995160;28;20070;-74
2023/08/18 06:23:18;;;;;;;20.38;10.13;;;;;;;-144.73;100.00;54543.16;5000891;28;20045;-74
2023/08/18 06:25:44;;;;;;;21.60;10.73;;;;;;;-144.73;100.00;54559.59;5001142;28;20037;-74
2023/08/18 06:28:09;;;;;;;23.25;11.15;;;;;;;-144.73;100.00;54543.16;5001816;28;20022;-75
2023/08/18 06:30:34;;;;;;;25.67;10.98;;;;;;;-144.73;100.00;54500.06;5001452;28;20090;-74
2023/08/18 06:33:00;;;;;;;19.45;10.75;;;;;;;-144.73;100.00;54526.75;4990811;28;20027;-74
2023/08/18 06:35:25;;;;;;;21.67;11.48;;;;;;;-144.73;100.00;54539.06;4995479;28;20063;-74
2023/08/18 06:37:50;;;;;;;19.73;10.27;;;;;;;-144.73;100.00;54522.63;4983191;28;20022;-74
2023/08/18 06:40:16;;;;;;;21.50;9.07;;;;;;;-144.73;100.00;54514.44;5002076;28;20040;-75
2023/08/18 06:42:41;;;;;;;25.65;11.32;;;;;;;-144.73;100.00;54518.53;5010336;28;20095;-75
2023/08/18 06:45:07;;;;;;;24.17;11.02;;;;;;;-144.73;100.00;54571.91;4998116;28;20037;-75
2023/08/18 06:47:33;;;;;;;29.35;11.07;;;;;;;-144.73;100.00;54551.38;4997513;28;20026;-75
2023/08/18 06:49:59;;;;;;;25.40;11.10;;;;;;;-144.73;100.00;54559.59;4996736;28;20036;-74
2023/08/18 06:52:26;;;;;;;16.75;9.70;;;;;;;-144.73;100.00;54530.84;5001170;28;20033;-75
2023/08/18 06:54:51;;;;;;;19.38;9.82;;;;;;;-144.73;100.00;54539.06;5000579;28;20042;-74
2023/08/18 06:57:17;;;;;;;22.88;10.93;;;;;;;-144.73;100.00;54547.28;5005504;28;20109;-74
2023/08/18 06:59:42;;;;;;;32.63;10.43;;;;;;;-144.73;100.00;54541.13;4992594;28;20181;-75
2023/08/18 07:02:08;;;;;;;23.95;10.13;;;;;;;-144.73;100.00;54541.13;4989502;28;20026;-75
2023/08/18 07:04:33;;;;;;;24.20;10.73;;;;;;;-144.73;100.00;54547.28;5005857;28;20038;-75
2023/08/18 07:06:59;;;;;;;19.20;10.82;;;;;;;-144.73;100.00;54555.47;4989032;28;20109;-75
2023/08/18 07:09:24;;;;;;;22.85;11.00;;;;;;;-144.73;100.00;54518.53;4983277;28;20062;-74
2023/08/18 07:11:49;;;;;;;16.35;10.10;;;;;;;-144.73;100.00;54557.53;5002305;28;20021;-75
2023/08/18 07:14:15;;;;;;;21.15;11.32;;;;;;;-144.73;100.00;54512.38;4999557;28;20042;-74
2023/08/18 07:16:40;;;;;;;24.50;10.65;;;;;;;-144.73;100.00;54604.75;4999116;28;20025;-75
2023/08/18 07:19:05;;;;;;;26.08;10.98;;;;;;;-144.73;100.00;54514.44;4989378;28;20037;-75
2023/08/18 07:21:31;;;;;;;22.90;11.70;;;;;;;-144.73;100.00;54526.75;5007338;28;20044;-78
2023/08/18 07:23:56;;;;;;;22.02;11.73;;;;;;;-144.73;100.00;54539.06;4990842;28;20456;-75
2023/08/18 07:26:21;;;;;;;20.45;12.05;;;;;;;-144.73;100.00;54539.06;5002672;28;20056;-74
2023/08/18 07:28:47;;;;;;;21.85;11.85;;;;;;;-144.73;100.00;54514.44;5000572;28;20022;-75
2023/08/18 07:31:12;;;;;;;22.70;11.20;;;;;;;-144.73;100.00;54477.47;5000062;28;20070;-75
2023/08/18 07:33:37;;;;;;;25.08;11.10;;;;;;;-144.73;100.00;54571.91;4998901;28;20064;-75
2023/08/18 07:36:03;;;;;;;22.75;12.32;;;;;;;-144.73;100.00;54551.38;4999864;28;20038;-75
2023/08/18 07:38:35;;;;;;;27.40;10.57;;;;;;;-144.73;100.00;54547.28;4994051;28;20282;-75
2023/08/18 07:41:00;;;;;;;18.27;9.80;;;;;;;-144.73;100.00;54563.69;4980187;28;20085;-75
2023/08/18 07:43:26;;;;;;;20.40;9.05;;;;;;;-144.73;100.00;54551.38;4985590;28;20045;-75
2023/08/18 07:45:51;;;;;;;21.73;10.95;;;;;;;-144.73;100.00;54518.53;4990320;28;20100;-75
2023/08/18 07:48:17;;;;;;;20.38;10.20;;;;;;;-144.73;100.00;54541.13;4991054;28;20014;-76
2023/08/18 07:50:43;;;;;;;20.00;10.60;;;;;;;-144.73;100.00;54559.59;4990531;28;20037;-76
2023/08/18 07:53:08;;;;;;;17.67;10.30;;;;;;;-144.73;100.00;54551.38;4986075;28;20029;-75
2023/08/18 07:55:34;;;;;;;32.20;11.35;;;;;;;-144.73;100.00;54543.16;4986108;28;20057;-74
2023/08/18 07:57:59;;;;;;;20.90;9.82;;;;;;;-144.73;100.00;54539.06;4983415;28;20470;-75
2023/08/18 08:00:26;;;;;;;19.73;10.52;;;;;;;-144.73;100.00;54539.06;4986755;28;20046;-76
2023/08/18 08:02:52;;;;;;;22.95;10.73;;;;;;;-144.73;100.00;54539.06;4990600;28;20026;-76
2023/08/18 08:05:19;;;;;;;42.13;20.33;;;;;;;-144.73;100.00;54604.75;4993230;28;20038;-76
2023/08/18 08:07:45;;;;;;;24.13;13.50;;;;;;;-144.73;100.00;54539.06;4994819;28;20026;-75
2023/08/18 08:10:10;;;;;;;17.00;9.57;;;;;;;-144.73;100.00;54580.13;4992974;28;20050;-76
2023/08/18 08:12:39;;;;;;;23.13;9.57;;;;;;;-144.73;100.00;54559.59;4992798;28;20017;-76
2023/08/18 08:15:07;;;;;;;19.40;9.75;;;;;;;-144.73;100.00;54563.69;5001288;28;20052;-75
2023/08/18 08:17:32;;;;;;;16.88;9.02;;;;;;;-144.73;100.00;54506.22;5001253;28;20123;-76
2023/08/18 08:20:14;;;;;;;16.52;9.63;;;;;;;-144.73;100.00;54481.59;4989392;28;20098;-75
2023/08/18 08:22:39;;;;;;;17.05;9.88;;;;;;;-144.73;100.00;54518.53;4987987;28;20014;-76
2023/08/18 08:25:05;;;;;;;14.93;8.73;;;;;;;-144.73;100.00;54522.63;4987241;28;20038;-75
2023/08/18 08:27:30;;;;;;;13.82;8.77;;;;;;;-144.73;100.00;54502.13;4985473;28;20018;-76
2023/08/18 08:29:57;;;;;;;22.75;10.27;;;;;;;-144.73;100.00;54551.38;4990381;28;20100;-76
2023/08/18 08:32:22;;;;;;;23.10;10.48;;;;;;;-144.73;100.00;54510.31;4985605;28;20034;-76
2023/08/18 08:34:49;;;;;;;20.30;10.48;;;;;;;-144.73;100.00;54489.81;4985568;28;20030;-76
2023/08/18 08:37:15;;;;;;;18.23;9.07;;;;;;;-144.73;100.00;54510.31;4986040;28;20109;-73
2023/08/18 08:39:40;;;;;;;18.00;9.75;;;;;;;-144.73;100.00;54493.91;4984078;28;20039;-76
2023/08/18 08:42:06;;;;;;;11.88;8.63;;;;;;;-144.73;100.00;54518.53;4988664;28;20488;-74
2023/08/18 08:44:31;;;;;;;18.10;8.82;;;;;;;-144.73;100.00;54481.59;4988488;28;20490;-75
2023/08/18 08:47:00;;;;;;;23.30;10.27;;;;;;;-144.73;100.00;54489.81;4996999;28;20097;-74
2023/08/18 08:49:28;;;;;;;22.73;9.70;;;;;;;-144.73;100.00;54526.75;4987324;28;20127;-74
2023/08/18 08:51:57;;;;;;;19.52;10.63;;;;;;;-144.73;100.00;54512.38;4992243;28;20019;-74
2023/08/18 08:54:27;;;;;;;20.95;9.48;;;;;;;-144.73;100.00;54489.81;4996899;28;20049;-74
2023/08/18 08:56:53;;;;;;;18.05;9.90;;;;;;;-144.73;100.00;54514.44;4990007;28;20025;-74
2023/08/18 08:59:19;;;;;;;15.77;9.25;;;;;;;-144.73;100.00;54522.63;4991217;28;20038;-74
2023/08/18 09:01:44;;;;;;;16.73;9.75;;;;;;;-144.73;100.00;54518.53;4993593;28;20051;-74
2023/08/18 09:04:10;;;;;;;16.25;9.00;;;;;;;-144.73;100.00;54493.91;4985914;28;20042;-74
2023/08/18 09:06:50;;;;;;;14.27;8.77;;;;;;;-144.73;100.00;54506.22;4990940;28;20014;-75
2023/08/18 09:09:18;;;;;;;14.30;9.05;;;;;;;-144.73;100.00;54541.13;4988218;28;20061;-74
2023/08/18 09:11:45;;;;;;;17.08;10.07;;;;;;;-144.73;100.00;54506.22;4990048;28;20023;-76
2023/08/18 09:14:12;;;;;;;17.08;9.40;;;;;;;-144.73;100.00;54502.13;4988598;28;20038;-75
2023/08/18 09:16:38;;;;;;;17.20;8.57;;;;;;;-144.73;100.00;54510.31;4989500;28;20033;-75
2023/08/18 09:19:04;;;;;;;13.07;8.73;;;;;;;-144.73;100.00;54473.38;4985664;28;20026;-75
2023/08/18 09:21:31;;;;;;;17.52;9.68;;;;;;;-144.73;100.00;54498.00;4988760;28;20072;-75
2023/08/18 09:23:57;;;;;;;14.32;9.93;;;;;;;-144.73;100.00;54465.16;4988622;28;20018;-75
2023/08/18 09:26:24;;;;;;;24.25;10.75;;;;;;;-144.73;100.00;54493.91;4989390;28;20542;-75
2023/08/18 09:28:50;;;;;;;18.08;10.48;;;;;;;-144.73;100.00;54518.53;5004843;28;20044;-75
2023/08/18 09:31:15;;;;;;;19.65;10.68;;;;;;;-144.73;100.00;54469.28;4991466;28;20098;-75
2023/08/18 09:33:41;;;;;;;18.30;9.77;;;;;;;-144.73;100.00;54469.28;5000741;28;20094;-75
2023/08/18 09:36:11;;;;;;;18.80;8.95;;;;;;;-144.73;100.00;54514.44;4989317;28;20026;-74
2023/08/18 09:38:42;;;;;;;13.73;8.25;;;;;;;-144.73;100.00;54543.16;4985992;28;20056;-74
2023/08/18 09:41:12;;;;;;;11.75;7.55;;;;;;;-144.73;100.00;54456.97;4988589;28;20038;-74
2023/08/18 09:43:38;;;;;;;9.90;6.70;;;;;;;-144.73;100.00;54432.31;4993420;28;20043;-74
2023/08/18 09:46:05;;;;;;;11.77;7.60;;;;;;;-144.73;100.00;54481.59;4994828;28;20038;-74
2023/08/18 09:48:37;;;;;;;11.23;7.47;;;;;;;-144.73;100.00;54448.75;4994358;28;20017;-74
2023/08/18 09:51:08;;;;;;;14.73;7.88;;;;;;;-144.73;100.00;54452.84;4992041;28;20054;-75
2023/08/18 09:53:33;;;;;;;15.13;7.45;;;;;;;-144.73;100.00;54438.50;4989795;28;20021;-75
2023/08/18 09:56:04;;;;;;;10.57;7.22;;;;;;;-144.73;100.00;54432.31;4993743;28;20057;-75
2023/08/18 09:58:45;;;;;;;17.08;7.55;;;;;;;-144.73;100.00;54469.28;4988471;28;20035;-75
2023/08/18 10:01:14;;;;;;;12.63;7.30;;;;;;;-144.73;100.00;54432.31;4993078;28;20038;-75
2023/08/18 10:03:41;;;;;;;14.45;8.25;;;;;;;-144.73;100.00;54420.00;4995061;28;20481;-75
2023/08/18 10:06:07;;;;;;;12.25;7.35;;;;;;;-144.73;100.00;54473.38;4992658;28;20552;-75
2023/08/18 10:08:34;;;;;;;11.02;6.60;;;;;;;-144.73;100.00;54487.75;4996335;28;20033;-76
2023/08/18 10:11:01;;;;;;;17.73;6.25;;;;;;;-144.73;100.00;54489.81;4991658;28;20409;-75
2023/08/18 10:13:30;;;;;;;13.75;6.35;;;;;;;-144.73;100.00;54452.84;4994111;28;20026;-76
2023/08/18 10:15:56;;;;;;;18.13;6.93;;;;;;;-144.73;100.00;54438.50;4988164;28;20041;-75
2023/08/18 10:18:23;;;;;;;14.10;7.63;;;;;;;-144.73;100.00;54469.28;4989130;28;20018;-75
2023/08/18 10:20:50;;;;;;;12.50;7.93;;;;;;;-144.73;100.00;54514.44;4984414;28;20034;-76
2023/08/18 10:23:20;;;;;;;14.50;6.90;;;;;;;-144.73;100.00;54465.16;4988432;28;20041;-76
2023/08/18 10:25:49;;;;;;;9.38;7.03;;;;;;;-144.73;100.00;54485.69;4985598;28;20065;-76
2023/08/18 10:28:20;;;;;;;15.75;7.13;;;;;;;-144.73;100.00;54506.22;4989373;28;20010;-76
2023/08/18 10:30:57;;;;;;;14.00;7.88;;;;;;;-144.73;100.00;54448.75;4989458;28;20049;-76
2023/08/18 10:33:43;;;;;;;13.35;7.50;;;;;;;-144.73;100.00;54428.22;4991630;28;20118;-76
2023/08/18 10:36:09;;;;;;;13.65;7.95;;;;;;;-144.73;100.00;54456.97;4988461;28;20042;-76
2023/08/18 10:38:39;;;;;;;11.32;7.35;;;;;;;-144.73;100.00;54469.28;4988300;28;20053;-75
2023/08/18 10:41:04;;;;;;;12.05;6.93;;;;;;;-144.73;100.00;54440.53;4985572;28;20041;-75
2023/08/18 10:43:41;;;;;;;12.13;6.75;;;;;;;-144.73;100.00;54475.44;4986125;28;20022;-74
2023/08/18 10:46:11;;;;;;;11.80;6.63;;;;;;;-144.73;100.00;54432.31;4986383;28;20109;-76
2023/08/18 10:48:36;;;;;;;12.68;6.53;;;;;;;-144.73;100.00;54395.38;4983942;28;20373;-76
2023/08/18 10:51:02;;;;;;;19.00;7.13;;;;;;;-144.73;100.00;54436.44;4986193;28;20038;-76
2023/08/18 10:53:37;;;;;;;18.23;6.05;;;;;;;-144.73;100.00;54428.22;4989289;28;20026;-76
2023/08/18 10:56:05;;;;;;;9.60;6.90;;;;;;;-144.73;100.00;54452.84;4988187;28;20045;-76
2023/08/18 10:58:32;;;;;;;13.23;6.68;;;;;;;-144.73;100.00;54420.00;4991665;28;20018;-75
2023/08/18 11:00:57;;;;;;;11.68;6.18;;;;;;;-144.73;100.00;54407.69;4989055;28;20041;-77